الصفحة الرئيسية
METAR-TAF:

METAR-TAF

مطار :

مطار راجيف غاندي الدولي

حيدر آباد, الهند

دائرة عرض: 17-14-00N, خط طول: 078-26-00E, ارتفاع: 617 متر

مراقبة الطقس الحالي

تاريخ ووقت الإصدار 10 دقيقة قبل الساعة 23:00UTC
ريح 7 عقدة من الجنوب الغربي
درجة الحرارة 25°درجة مئوية
الرطوبة 89%
ضغط 1009 hPa
الرؤية: 6000 متر
غيوم متفرقة على ارتفاع 2000 قدم
غيوم مفككة على ارتفاع 10000 قدم

METAR: VOHS 032300Z 22007KT 6000 SCT020 BKN100 25/23 Q1009 NOSIG

زمن: 04:40 (23:10 UTC)

توقعات

تاريخ ووقت الإصدار 3ساعات و 10 دقيقة قبل الساعة 20:00UTC
التوقعات صالحة من03 الساعة 21 UTC إلى 04 الساعة 06 UTC
ريح 6 عقدة من الجنوب/الجنوب الغربي
الرؤية: 6000 متر
غيوم متفرقة على ارتفاع 1500 قدم
غيوم مفككة على ارتفاع 10000 قدم
مؤقت
من 03 الساعة 23 UTC إلى 04 الساعة 03 UTC
غيوم قليلة على ارتفاع 3000 قدم, مزنة ركامية.
أصبح
من 04 الساعة 05 UTC إلى 04 الساعة 06 UTC
ريح 10 عقدة من الجنوب/الجنوب الغربي
الرؤية: 6000 متر
غيوم متفرقة على ارتفاع 1500 قدم
غيوم متفرقة على ارتفاع 2500 قدم

TAF: VOHS 032000Z 0321/0406 21006KT 6000 SCT015 BKN100 TEMPO 0323/0403 FEW030CB BECMG 0405/0406 21010KT 6000 SCT015 SCT025

أرصاد الطقس والتوقعات من أكثر من 4000 مطار (تقارير الطقس للمطار METAR والتنبؤ بالطقس بالمطارTAF).

المحطات المتاحة هي النقط الصفراء والحمراء على الخريطة.

حرك المؤشر فوق النقطة لمعرفة اسم المحطة.

ثم انقر لمعرفة أرصاد وتوقعات الطقس.

لتغيير الخارطة: اضغط على الأزرار الخضراء مع رمز الصليب الأسود للتكبير. على الزر الأخضر مع شرطة للتصغير، أو على الأسهم الخضراء للخرائط المجاورة.


METAR-TAF: